createdAt,value
2023-01-10T00:00:03.923Z,96373.66
2023-01-10T00:04:08.020Z,96379.50
2023-01-10T00:08:10.021Z,96348.63
2023-01-10T00:12:22.871Z,96382.34
2023-01-10T00:16:23.575Z,96359.47
2023-01-10T00:20:26.148Z,96386.28
2023-01-10T00:24:26.335Z,96394.09
2023-01-10T00:28:26.283Z,96394.06
2023-01-10T00:32:26.285Z,96393.81
2023-01-10T00:36:28.867Z,96411.44
2023-01-10T00:40:28.923Z,96395.19
2023-01-10T00:44:26.890Z,96411.56
2023-01-10T00:48:27.272Z,96405.94
2023-01-10T00:52:29.806Z,96437.72
2023-01-10T00:56:30.033Z,96444.25
2023-01-10T01:00:30.377Z,96444.81
2023-01-10T01:04:34.103Z,96453.78
2023-01-10T01:08:37.069Z,96462.06
2023-01-10T01:12:37.154Z,96447.59
2023-01-10T01:16:37.268Z,96489.22
2023-01-10T01:20:37.529Z,96466.97
2023-01-10T01:24:40.117Z,96509.44
2023-01-10T01:28:40.732Z,96519.38
2023-01-10T01:32:41.268Z,96523.25
2023-01-10T01:36:41.430Z,96527.50
2023-01-10T01:40:45.100Z,96508.13
2023-01-10T01:44:45.160Z,96529.56
2023-01-10T01:48:47.167Z,96534.25
2023-01-10T01:52:48.141Z,96541.44
2023-01-10T01:56:56.532Z,96553.84
2023-01-10T02:00:58.590Z,96563.53
2023-01-10T02:05:05.006Z,96571.16
2023-01-10T02:09:15.529Z,96546.84
2023-01-10T02:13:22.106Z,96569.78
2023-01-10T02:17:22.121Z,96578.41
2023-01-10T02:22:13.576Z,96593.41
2023-01-10T02:26:50.007Z,96593.91
2023-01-10T02:31:47.788Z,96588.34
2023-01-10T02:36:22.933Z,96595.91
2023-01-10T02:40:31.963Z,96607.13
2023-01-10T02:44:40.386Z,96614.16
2023-01-10T02:48:40.496Z,96619.94
2023-01-10T02:52:43.179Z,96618.38
2023-01-10T02:57:18.389Z,96632.59
2023-01-10T03:01:28.876Z,96623.53
2023-01-10T03:05:44.868Z,96649.28
2023-01-10T03:09:59.344Z,96653.78
2023-01-10T03:14:04.052Z,96665.28
2023-01-10T03:18:11.123Z,96666.44
2023-01-10T03:22:14.032Z,96672.31
2023-01-10T03:26:20.396Z,96678.75
2023-01-10T03:30:31.124Z,96605.28
2023-01-10T03:34:31.550Z,96696.47
2023-01-10T03:38:44.659Z,96702.56
2023-01-10T03:43:09.391Z,96702.19
2023-01-10T03:47:15.275Z,96715.44
2023-01-10T03:51:17.085Z,96718.19
2023-01-10T03:55:23.506Z,96726.25
2023-01-10T03:59:30.180Z,96739.41
2023-01-10T04:03:30.255Z,96741.69
2023-01-10T04:07:30.473Z,96755.06
2023-01-10T04:11:30.514Z,96694.25
2023-01-10T04:15:33.916Z,96766.41
2023-01-10T04:19:34.305Z,96772.97
2023-01-10T04:23:34.434Z,96741.25
2023-01-10T04:27:34.461Z,96780.16
2023-01-10T04:31:37.580Z,96764.72
2023-01-10T04:35:37.791Z,96793.63
2023-01-10T04:39:37.956Z,96803.19
2023-01-10T04:43:38.086Z,96808.47
2023-01-10T04:47:40.753Z,96793.03
2023-01-10T04:51:41.090Z,96818.63
2023-01-10T04:55:41.103Z,96829.22
2023-01-10T04:59:41.221Z,96839.56
2023-01-10T05:03:44.122Z,96841.78
2023-01-10T05:07:44.732Z,96856.72
2023-01-10T05:11:44.868Z,96862.59
2023-01-10T05:15:44.919Z,96866.50
2023-01-10T05:19:47.606Z,96874.81
2023-01-10T05:23:47.725Z,96888.84
2023-01-10T05:27:47.798Z,96900.81
2023-01-10T05:31:47.880Z,96899.00
2023-01-10T05:35:50.662Z,96905.34
2023-01-10T05:39:50.904Z,96902.00
2023-01-10T05:43:50.929Z,96921.81
2023-01-10T05:47:51.058Z,96920.56
2023-01-10T05:51:53.664Z,96928.66
2023-01-10T05:55:59.463Z,96932.03
2023-01-10T05:59:59.635Z,96945.13
2023-01-10T06:04:00.887Z,96957.78
2023-01-10T06:08:03.624Z,96971.19
2023-01-10T06:12:03.764Z,96977.22
2023-01-10T06:16:04.075Z,96992.56
2023-01-10T06:20:05.594Z,96984.59
2023-01-10T06:24:09.667Z,96987.25
2023-01-10T06:28:10.365Z,96998.72
2023-01-10T06:32:10.396Z,96999.91
2023-01-10T06:36:11.757Z,97025.38
2023-01-10T06:40:15.449Z,97040.19
2023-01-10T06:44:15.531Z,97046.94
2023-01-10T06:48:15.590Z,97056.13
2023-01-10T06:52:15.805Z,96990.66
2023-01-10T06:56:18.556Z,97046.50
2023-01-10T07:00:20.549Z,97077.53
2023-01-10T07:04:20.552Z,97092.75
2023-01-10T07:08:20.630Z,97096.00
2023-01-10T07:12:23.345Z,97095.53
2023-01-10T07:16:23.575Z,97120.69
2023-01-10T07:20:23.767Z,97047.69
2023-01-10T07:24:23.953Z,97132.25
2023-01-10T07:28:26.995Z,97116.06
2023-01-10T07:32:27.298Z,97154.84
2023-01-10T07:36:27.469Z,97166.38
2023-01-10T07:40:27.963Z,97117.59
2023-01-10T07:44:30.572Z,97187.56
2023-01-10T07:48:30.851Z,97194.34
2023-01-10T07:52:30.886Z,97208.31
2023-01-10T07:56:31.011Z,97205.38
2023-01-10T08:00:33.677Z,97215.31
2023-01-10T08:04:33.850Z,97218.59
2023-01-10T08:08:35.969Z,97207.38
2023-01-10T08:12:36.463Z,97233.56
2023-01-10T08:16:39.152Z,97233.28
2023-01-10T08:20:39.315Z,97239.09
2023-01-10T08:24:39.508Z,97242.44
2023-01-10T08:28:39.626Z,97250.63
2023-01-10T08:32:42.294Z,97252.91
2023-01-10T08:36:42.346Z,97259.06
2023-01-10T08:40:42.389Z,97274.09
2023-01-10T08:44:42.547Z,97245.97
2023-01-10T08:48:45.239Z,97293.25
2023-01-10T08:52:45.279Z,97290.75
2023-01-10T08:56:45.280Z,97225.16
2023-01-10T09:00:45.364Z,97299.72
2023-01-10T09:04:48.033Z,97313.44
2023-01-10T09:08:48.275Z,97324.03
2023-01-10T09:12:57.437Z,97339.59
2023-01-10T09:16:57.692Z,97331.22
2023-01-10T09:21:00.582Z,97326.50
2023-01-10T09:25:00.679Z,97334.16
2023-01-10T09:29:00.715Z,97344.66
2023-01-10T09:33:02.177Z,97358.56
2023-01-10T09:37:04.855Z,97367.94
2023-01-10T09:41:31.246Z,97379.78
2023-01-10T09:45:47.342Z,97389.00
2023-01-10T09:49:58.886Z,97391.13
2023-01-10T09:54:12.482Z,97392.97
2023-01-10T09:58:18.479Z,97391.63
2023-01-10T10:02:29.441Z,97384.41
2023-01-10T10:06:29.540Z,97373.91
2023-01-10T10:10:43.505Z,97386.47
2023-01-10T10:15:10.530Z,97387.94
2023-01-10T10:19:26.020Z,97374.16
2023-01-10T10:24:13.608Z,97398.22
2023-01-10T10:28:46.633Z,97384.91
2023-01-10T10:33:12.312Z,97393.03
2023-01-10T10:37:19.724Z,97385.84
2023-01-10T10:41:33.162Z,97389.84
2023-01-10T10:45:44.405Z,97380.84
2023-01-10T10:49:52.294Z,97389.16
2023-01-10T10:53:52.374Z,97382.75
2023-01-10T10:58:00.474Z,97385.38
2023-01-10T11:02:04.015Z,97374.88
2023-01-10T11:06:04.918Z,97387.50
2023-01-10T11:10:21.914Z,97419.13
2023-01-10T11:14:46.907Z,97422.63
2023-01-10T11:19:10.745Z,97426.41
2023-01-10T11:23:10.877Z,97396.69
2023-01-10T11:27:21.775Z,97420.34
2023-01-10T11:31:30.873Z,97427.38
2023-01-10T11:35:38.127Z,97425.97
2023-01-10T11:39:38.396Z,97425.59
2023-01-10T11:43:41.829Z,97424.00
2023-01-10T11:47:45.922Z,97410.00
2023-01-10T11:51:54.462Z,97423.19
2023-01-10T11:55:55.691Z,97432.13
2023-01-10T11:59:59.166Z,97424.34
2023-01-10T12:04:00.732Z,97423.84
2023-01-10T12:08:10.695Z,97293.69
2023-01-10T12:12:32.563Z,97405.38
2023-01-10T12:16:34.698Z,97411.78
2023-01-10T12:20:47.777Z,97410.81
2023-01-10T12:24:55.898Z,97414.88
2023-01-10T12:29:01.772Z,97425.63
2023-01-10T12:33:07.280Z,97429.88
2023-01-10T12:37:19.892Z,97424.75
2023-01-10T12:41:45.256Z,97433.88
2023-01-10T12:45:55.967Z,97428.94
2023-01-10T12:50:02.097Z,97430.81
2023-01-10T12:54:08.275Z,97386.56
2023-01-10T12:58:23.198Z,97446.13
2023-01-10T13:02:30.559Z,97452.75
2023-01-10T13:06:36.435Z,97458.88
2023-01-10T13:10:40.333Z,97453.94
2023-01-10T13:14:54.444Z,97464.13
2023-01-10T13:19:09.112Z,97442.88
2023-01-10T13:23:30.556Z,97418.25
2023-01-10T13:27:35.939Z,97448.56
2023-01-10T13:31:38.853Z,97459.59
2023-01-10T13:35:45.729Z,97452.22
2023-01-10T13:39:57.539Z,97466.47
2023-01-10T13:44:12.145Z,97477.44
2023-01-10T13:48:31.335Z,97486.97
2023-01-10T13:52:36.115Z,97459.16
2023-01-10T13:56:40.899Z,97488.78
2023-01-10T14:01:06.789Z,97487.91
2023-01-10T14:05:19.076Z,97491.06
2023-01-10T14:09:44.822Z,97488.19
2023-01-10T14:13:54.042Z,97484.16
2023-01-10T14:18:03.202Z,97487.03
2023-01-10T14:22:07.265Z,97498.47
2023-01-10T14:26:09.311Z,97495.81
2023-01-10T14:30:18.961Z,97453.41
2023-01-10T14:34:26.561Z,97473.00
2023-01-10T14:38:33.745Z,97494.97
2023-01-10T14:42:34.356Z,97481.56
2023-01-10T14:46:47.152Z,97487.09
2023-01-10T14:50:47.467Z,97502.16
2023-01-10T14:54:51.444Z,97476.63
2023-01-10T14:58:51.635Z,97490.38
2023-01-10T15:02:53.440Z,97509.53
2023-01-10T15:07:00.139Z,97488.28
2023-01-10T15:11:08.164Z,97500.22
2023-01-10T15:15:16.202Z,97495.69
2023-01-10T15:19:22.727Z,97501.09
2023-01-10T15:23:27.185Z,97501.22
2023-01-10T15:27:31.791Z,97500.16
2023-01-10T15:31:33.616Z,97412.91
2023-01-10T15:35:36.897Z,97401.88
2023-01-10T15:39:42.127Z,97455.84
2023-01-10T15:43:45.266Z,97485.97
2023-01-10T15:48:03.225Z,97460.38
2023-01-10T15:52:03.769Z,97483.69
2023-01-10T15:56:19.423Z,97461.19
2023-01-10T16:00:23.318Z,97464.25
2023-01-10T16:04:23.758Z,97467.56
2023-01-10T16:08:29.169Z,97466.72
2023-01-10T16:12:48.959Z,97468.56
2023-01-10T16:16:51.599Z,97468.47
2023-01-10T16:20:54.999Z,97464.31
2023-01-10T16:24:55.247Z,97465.31
2023-01-10T16:28:55.527Z,97467.66
2023-01-10T16:33:00.057Z,97477.06
2023-01-10T16:37:00.225Z,97442.31
2023-01-10T16:41:23.059Z,97464.41
2023-01-10T16:45:23.128Z,97479.03
2023-01-10T16:49:26.419Z,97479.63
2023-01-10T16:53:26.727Z,97479.63
2023-01-10T16:57:26.957Z,97479.91
2023-01-10T17:01:32.207Z,97463.06
2023-01-10T17:05:38.435Z,97479.78
2023-01-10T17:09:39.729Z,97471.56
2023-01-10T17:13:45.530Z,97464.84
2023-01-10T17:17:46.839Z,97461.75
2023-01-10T17:21:49.608Z,97453.13
2023-01-10T17:25:50.750Z,97463.84
2023-01-10T17:29:51.724Z,97462.84
2023-01-10T17:33:51.913Z,97453.53
2023-01-10T17:37:56.833Z,97422.34
2023-01-10T17:41:57.887Z,97465.19
2023-01-10T17:46:00.181Z,97453.19
2023-01-10T17:50:00.539Z,97451.34
2023-01-10T17:54:03.405Z,97461.56
2023-01-10T17:58:03.804Z,97455.09
2023-01-10T18:02:04.071Z,97455.88
2023-01-10T18:06:07.670Z,97444.56
2023-01-10T18:10:12.410Z,97460.03
2023-01-10T18:14:27.678Z,97441.78
2023-01-10T18:18:28.110Z,97452.06
2023-01-10T18:22:43.598Z,97454.72
2023-01-10T18:26:46.580Z,97443.75
2023-01-10T18:30:46.810Z,97458.78
2023-01-10T18:34:47.242Z,97423.66
2023-01-10T18:38:48.775Z,97453.31
2023-01-10T18:42:55.083Z,97428.34
2023-01-10T18:46:55.218Z,97428.72
2023-01-10T18:50:56.572Z,97435.00
2023-01-10T18:54:57.555Z,97391.78
2023-01-10T18:59:01.791Z,97421.03
2023-01-10T19:03:02.430Z,97417.81
2023-01-10T19:07:02.525Z,97419.44
2023-01-10T19:11:13.315Z,97419.00
2023-01-10T19:15:17.157Z,97403.53
2023-01-10T19:19:17.300Z,97388.94
2023-01-10T19:23:17.446Z,97393.78
2023-01-10T19:27:18.424Z,97389.94
2023-01-10T19:31:24.228Z,97380.41
2023-01-10T19:35:24.391Z,97382.84
2023-01-10T19:39:24.676Z,97384.91
2023-01-10T19:43:26.012Z,97385.53
2023-01-10T19:47:29.038Z,97383.47
2023-01-10T19:51:29.116Z,97362.34
2023-01-10T19:55:29.805Z,97393.44
2023-01-10T19:59:31.727Z,97397.47
2023-01-10T20:03:34.763Z,97390.59
2023-01-10T20:07:34.879Z,97402.38
2023-01-10T20:11:41.917Z,97373.53
2023-01-10T20:15:42.004Z,97397.50
2023-01-10T20:19:44.690Z,97389.56
2023-01-10T20:23:45.801Z,97399.56
2023-01-10T20:27:46.919Z,97389.38
2023-01-10T20:31:52.702Z,97401.53
2023-01-10T20:36:04.627Z,97397.06
2023-01-10T20:40:05.292Z,97388.72
2023-01-10T20:44:05.713Z,97389.72
2023-01-10T20:48:05.786Z,97374.72
2023-01-10T20:52:08.457Z,97369.81
2023-01-10T20:56:12.399Z,97360.09
2023-01-10T21:00:15.766Z,97373.13
2023-01-10T21:04:15.941Z,97360.53
2023-01-10T21:08:18.637Z,97363.72
2023-01-10T21:12:23.237Z,97348.16
2023-01-10T21:16:25.619Z,97340.81
2023-01-10T21:20:28.597Z,97351.19
2023-01-10T21:24:31.544Z,97357.28
2023-01-10T21:28:32.429Z,97339.81
2023-01-10T21:32:32.642Z,97345.09
2023-01-10T21:36:32.719Z,97342.47
2023-01-10T21:40:37.056Z,97346.31
2023-01-10T21:44:37.305Z,97311.59
2023-01-10T21:48:37.405Z,97339.03
2023-01-10T21:52:37.831Z,97346.31
2023-01-10T21:56:40.534Z,97337.38
2023-01-10T22:00:40.774Z,97318.69
2023-01-10T22:04:41.039Z,97315.84
2023-01-10T22:08:41.084Z,97277.09
2023-01-10T22:12:43.730Z,97284.22
2023-01-10T22:16:43.846Z,97301.25
2023-01-10T22:20:47.629Z,97301.25
2023-01-10T22:24:48.760Z,97290.72
2023-01-10T22:28:51.539Z,97283.81
2023-01-10T22:32:51.698Z,97257.22
2023-01-10T22:36:51.900Z,97279.78
2023-01-10T22:40:51.951Z,97278.13
2023-01-10T22:44:54.582Z,97266.38
2023-01-10T22:48:55.567Z,97263.09
2023-01-10T22:52:55.696Z,97261.91
2023-01-10T22:56:55.775Z,97271.66
2023-01-10T23:00:59.156Z,97266.97
2023-01-10T23:04:59.231Z,97246.47
2023-01-10T23:08:59.289Z,97255.00
2023-01-10T23:13:01.101Z,97242.84
2023-01-10T23:17:03.740Z,97206.94
2023-01-10T23:21:05.110Z,97245.28
2023-01-10T23:25:05.521Z,97245.88
2023-01-10T23:29:05.587Z,97235.94
2023-01-10T23:33:08.393Z,97221.56
2023-01-10T23:37:08.774Z,97233.09
2023-01-10T23:41:09.706Z,97220.09
2023-01-10T23:45:12.262Z,97218.09
2023-01-10T23:49:15.093Z,97201.88
2023-01-10T23:53:15.224Z,97216.06
2023-01-10T23:57:15.308Z,97222.16
